createdAt,value
2023-04-25T00:01:34.808Z,2.00
2023-04-25T00:04:02.033Z,1.80
2023-04-25T00:06:29.299Z,1.65
2023-04-25T00:09:01.293Z,1.60
2023-04-25T00:11:28.167Z,1.70
2023-04-25T00:13:55.481Z,1.73
2023-04-25T00:16:22.375Z,1.73
2023-04-25T00:18:52.471Z,1.77
2023-04-25T00:21:20.997Z,1.33
2023-04-25T00:23:48.504Z,1.83
2023-04-25T00:26:15.455Z,1.62
2023-04-25T00:28:52.680Z,1.42
2023-04-25T00:31:19.710Z,1.85
2023-04-25T00:33:46.618Z,2.00
2023-04-25T00:36:13.542Z,1.85
2023-04-25T00:38:44.547Z,1.65
2023-04-25T00:41:11.464Z,1.85
2023-04-25T00:43:38.596Z,1.70
2023-04-25T00:46:05.504Z,1.50
2023-04-25T00:48:50.852Z,1.60
2023-04-25T00:51:21.581Z,1.70
2023-04-25T00:53:51.070Z,1.77
2023-04-25T00:56:18.437Z,1.80
2023-04-25T00:58:49.395Z,1.60
2023-04-25T01:01:16.340Z,1.90
2023-04-25T01:03:44.081Z,1.70
2023-04-25T01:06:11.663Z,1.70
2023-04-25T01:08:54.979Z,1.40
2023-04-25T01:11:21.838Z,1.75
2023-04-25T01:13:49.219Z,1.80
2023-04-25T01:16:16.496Z,1.50
2023-04-25T01:19:14.663Z,1.33
2023-04-25T01:21:41.814Z,1.80
2023-04-25T01:24:09.114Z,1.60
2023-04-25T01:26:36.856Z,1.80
2023-04-25T01:32:45.566Z,1.50
2023-04-25T01:35:13.332Z,1.80
2023-04-25T01:38:30.023Z,1.55
2023-04-25T01:40:57.416Z,1.85
2023-04-25T01:43:24.505Z,1.58
2023-04-25T01:45:52.769Z,1.70
2023-04-25T01:48:43.380Z,1.70
2023-04-25T01:51:11.006Z,1.60
2023-04-25T01:53:37.860Z,1.45
2023-04-25T01:56:05.158Z,1.52
2023-04-25T01:58:36.105Z,1.90
2023-04-25T02:01:03.425Z,1.83
2023-04-25T02:03:32.498Z,1.70
2023-04-25T02:05:59.585Z,1.73
2023-04-25T02:08:50.555Z,1.75
2023-04-25T02:11:17.895Z,1.80
2023-04-25T02:16:11.467Z,1.70
2023-04-25T02:18:49.597Z,1.80
2023-04-25T02:21:16.484Z,1.80
2023-04-25T02:23:43.365Z,1.75
2023-04-25T02:26:10.230Z,1.65
2023-04-25T02:29:05.996Z,1.87
2023-04-25T02:31:32.997Z,1.80
2023-04-25T02:33:59.863Z,1.65
2023-04-25T02:39:11.668Z,1.80
2023-04-25T02:41:38.627Z,1.75
2023-04-25T02:44:05.570Z,1.83
2023-04-25T02:46:39.615Z,1.80
2023-04-25T02:49:23.954Z,1.80
2023-04-25T02:51:50.911Z,1.90
2023-04-25T02:54:17.832Z,1.80
2023-04-25T02:56:44.669Z,1.90
2023-04-25T03:01:40.257Z,1.95
2023-04-25T03:04:07.141Z,1.90
2023-04-25T03:06:34.101Z,2.03
2023-04-25T03:09:08.869Z,2.30
2023-04-25T03:11:35.843Z,2.22
2023-04-25T03:14:02.678Z,2.00
2023-04-25T03:19:21.656Z,2.20
2023-04-25T03:21:48.782Z,2.15
2023-04-25T03:24:15.661Z,2.35
2023-04-25T03:26:42.491Z,2.22
2023-04-25T03:29:17.384Z,1.98
2023-04-25T03:31:44.379Z,2.22
2023-04-25T03:34:11.355Z,2.20
2023-04-25T03:36:39.179Z,1.87
2023-04-25T03:39:20.723Z,2.12
2023-04-25T03:41:47.721Z,2.37
2023-04-25T03:44:14.990Z,2.20
2023-04-25T03:46:41.866Z,2.00
2023-04-25T03:49:28.265Z,2.10
2023-04-25T03:51:55.148Z,2.40
2023-04-25T03:54:22.097Z,2.20
2023-04-25T03:56:49.746Z,1.90
2023-04-25T03:59:39.340Z,2.03
2023-04-25T04:02:06.318Z,2.35
2023-04-25T04:04:33.493Z,2.12
2023-04-25T04:07:00.898Z,1.80
2023-04-25T04:09:45.610Z,1.92
2023-04-25T04:12:12.479Z,1.77
2023-04-25T04:14:39.331Z,2.15
2023-04-25T04:17:07.152Z,1.95
2023-04-25T04:19:40.861Z,2.20
2023-04-25T04:22:07.713Z,2.45
2023-04-25T04:24:34.595Z,2.30
2023-04-25T04:27:01.444Z,2.20
2023-04-25T04:33:34.488Z,2.53
2023-04-25T04:36:02.030Z,2.30
2023-04-25T04:38:42.091Z,2.20
2023-04-25T04:41:09.427Z,2.10
2023-04-25T04:43:36.302Z,2.37
2023-04-25T04:46:04.663Z,2.20
2023-04-25T04:48:51.112Z,2.03
2023-04-25T04:51:17.989Z,2.22
2023-04-25T04:53:44.852Z,2.35
2023-04-25T04:56:11.710Z,2.70
2023-04-25T04:58:39.574Z,2.55
2023-04-25T05:01:06.460Z,2.17
2023-04-25T05:03:33.451Z,2.40
2023-04-25T05:06:00.370Z,2.40
2023-04-25T05:10:55.994Z,2.42
2023-04-25T05:13:22.862Z,2.45
2023-04-25T05:15:49.717Z,2.47
2023-04-25T05:18:18.617Z,2.62
2023-04-25T05:20:45.629Z,2.60
2023-04-25T05:23:12.470Z,2.28
2023-04-25T05:25:39.342Z,2.30
2023-04-25T05:28:29.040Z,3.10
2023-04-25T05:30:55.937Z,2.67
2023-04-25T05:33:22.856Z,2.20
2023-04-25T05:35:49.791Z,2.40
2023-04-25T05:38:29.194Z,2.20
2023-04-25T05:40:56.041Z,2.95
2023-04-25T05:43:22.885Z,2.42
2023-04-25T05:45:49.828Z,2.20
2023-04-25T05:48:18.700Z,2.37
2023-04-25T05:50:45.599Z,2.28
2023-04-25T05:53:12.506Z,2.53
2023-04-25T05:55:39.382Z,2.60
2023-04-25T05:58:28.062Z,2.72
2023-04-25T06:00:55.434Z,2.87
2023-04-25T06:03:22.604Z,2.55
2023-04-25T06:05:49.765Z,2.53
2023-04-25T06:08:16.720Z,2.62
2023-04-25T06:10:43.790Z,2.60
2023-04-25T06:13:10.674Z,2.92
2023-04-25T06:15:37.567Z,2.60
2023-04-25T06:18:04.588Z,2.67
2023-04-25T06:20:31.551Z,2.70
2023-04-25T06:22:58.474Z,2.42
2023-04-25T06:25:25.435Z,2.28
2023-04-25T06:27:52.392Z,2.70
2023-04-25T06:30:23.630Z,2.62
2023-04-25T06:32:50.791Z,2.65
2023-04-25T06:35:17.894Z,2.83
2023-04-25T06:37:44.862Z,2.62
2023-04-25T06:40:14.681Z,2.75
2023-04-25T06:42:50.608Z,2.87
2023-04-25T06:45:32.722Z,3.30
2023-04-25T06:48:00.164Z,2.75
2023-04-25T06:50:27.487Z,3.20
2023-04-25T06:52:56.503Z,2.55
2023-04-25T06:55:23.387Z,3.08
2023-04-25T06:57:50.304Z,3.17
2023-04-25T07:00:17.634Z,2.95
2023-04-25T07:02:44.883Z,2.90
2023-04-25T07:05:11.969Z,3.03
2023-04-25T07:07:54.261Z,3.08
2023-04-25T07:10:22.508Z,3.67
2023-04-25T07:12:49.444Z,2.90
2023-04-25T07:15:16.465Z,3.65
2023-04-25T07:17:43.610Z,3.55
2023-04-25T07:20:17.394Z,3.20
2023-04-25T07:22:49.943Z,3.00
2023-04-25T07:25:21.919Z,3.22
2023-04-25T07:30:33.002Z,2.80
2023-04-25T07:33:36.997Z,2.92
2023-04-25T07:36:08.400Z,2.97
2023-04-25T07:38:37.880Z,2.95
2023-04-25T07:41:05.060Z,3.10
2023-04-25T07:43:34.327Z,2.83
2023-04-25T07:46:01.302Z,3.10
2023-04-25T07:48:28.228Z,3.30
2023-04-25T07:50:58.774Z,3.20
2023-04-25T07:53:25.819Z,3.35
2023-04-25T07:55:52.828Z,3.03
2023-04-25T07:58:22.965Z,2.92
2023-04-25T08:00:50.331Z,2.70
2023-04-25T08:03:17.451Z,2.87
2023-04-25T08:05:44.805Z,2.90
2023-04-25T08:08:11.760Z,3.33
2023-04-25T08:10:38.648Z,2.72
2023-04-25T08:13:05.548Z,3.12
2023-04-25T08:15:32.629Z,3.22
2023-04-25T08:18:00.694Z,3.45
2023-04-25T08:20:30.726Z,3.58
2023-04-25T08:22:57.720Z,3.08
2023-04-25T08:25:24.579Z,2.80
2023-04-25T08:27:51.804Z,2.85
2023-04-25T08:30:18.643Z,2.95
2023-04-25T08:32:45.548Z,2.90
2023-04-25T08:35:12.544Z,3.17
2023-04-25T08:37:39.478Z,3.15
2023-04-25T08:40:08.292Z,3.17
2023-04-25T08:42:36.580Z,2.70
2023-04-25T08:45:07.096Z,2.67
2023-04-25T08:47:35.859Z,2.80
2023-04-25T08:50:08.036Z,2.33
2023-04-25T08:52:39.279Z,2.65
2023-04-25T08:55:09.591Z,2.20
2023-04-25T08:57:38.014Z,2.85
2023-04-25T09:00:05.472Z,2.22
2023-04-25T09:02:32.566Z,2.42
2023-04-25T09:04:59.822Z,2.47
2023-04-25T09:07:26.954Z,2.47
2023-04-25T09:09:53.805Z,2.15
2023-04-25T09:12:21.601Z,2.40
2023-04-25T09:15:12.360Z,1.60
2023-04-25T09:17:41.605Z,2.47
2023-04-25T09:20:13.987Z,1.90
2023-04-25T09:22:41.143Z,1.98
2023-04-25T09:25:12.964Z,2.47
2023-04-25T09:27:53.351Z,2.62
2023-04-25T09:30:20.573Z,2.50
2023-04-25T09:32:48.463Z,2.50
2023-04-25T09:35:26.514Z,2.80
2023-04-25T09:37:53.404Z,2.40
2023-04-25T09:40:20.615Z,2.50
2023-04-25T09:42:47.571Z,2.25
2023-04-25T09:45:16.258Z,2.15
2023-04-25T09:47:45.156Z,1.90
2023-04-25T09:50:20.489Z,2.20
2023-04-25T09:52:47.459Z,2.15
2023-04-25T09:55:14.415Z,1.80
2023-04-25T09:57:42.279Z,2.10
2023-04-25T10:00:13.417Z,2.42
2023-04-25T10:02:44.140Z,2.70
2023-04-25T10:05:11.862Z,2.40
2023-04-25T10:07:39.641Z,2.50
2023-04-25T10:10:07.188Z,2.55
2023-04-25T10:12:35.674Z,3.25
2023-04-25T10:15:04.293Z,2.45
2023-04-25T10:17:31.376Z,2.37
2023-04-25T10:19:58.814Z,2.60
2023-04-25T10:22:34.353Z,2.60
2023-04-25T10:25:02.137Z,2.72
2023-04-25T10:27:29.553Z,2.45
2023-04-25T10:30:16.615Z,2.72
2023-04-25T10:32:44.250Z,2.22
2023-04-25T10:35:17.928Z,2.40
2023-04-25T10:38:07.434Z,2.40
2023-04-25T10:40:34.736Z,2.80
2023-04-25T10:43:32.786Z,2.78
2023-04-25T10:46:02.970Z,2.30
2023-04-25T10:48:33.181Z,2.30
2023-04-25T10:51:10.515Z,2.53
2023-04-25T10:53:39.699Z,2.50
2023-04-25T10:56:20.596Z,2.20
2023-04-25T10:58:48.673Z,2.95
2023-04-25T11:01:21.960Z,2.80
2023-04-25T11:03:51.889Z,2.33
2023-04-25T11:06:29.262Z,2.15
2023-04-25T11:08:56.172Z,2.40
2023-04-25T11:11:23.077Z,2.65
2023-04-25T11:13:51.064Z,2.50
2023-04-25T11:16:27.457Z,2.42
2023-04-25T11:18:58.598Z,2.40
2023-04-25T11:21:29.051Z,2.30
2023-04-25T11:23:57.860Z,2.60
2023-04-25T11:26:26.121Z,2.22
2023-04-25T11:28:53.374Z,2.17
2023-04-25T11:31:23.647Z,2.25
2023-04-25T11:33:50.934Z,2.15
2023-04-25T11:36:18.000Z,2.12
2023-04-25T11:38:44.918Z,2.05
2023-04-25T11:41:12.723Z,2.60
2023-04-25T11:43:40.792Z,2.30
2023-04-25T11:46:09.291Z,2.50
2023-04-25T11:48:43.683Z,2.22
2023-04-25T11:51:10.675Z,1.90
2023-04-25T11:53:37.563Z,1.90
2023-04-25T11:56:11.470Z,1.60
2023-04-25T11:59:01.919Z,1.50
2023-04-25T12:01:35.335Z,1.90
2023-04-25T12:04:14.392Z,2.08
2023-04-25T12:06:43.658Z,2.30
2023-04-25T12:09:17.039Z,2.00
2023-04-25T12:11:45.388Z,1.98
2023-04-25T12:14:13.056Z,1.62
2023-04-25T12:16:47.675Z,1.80
2023-04-25T12:19:18.260Z,1.83
2023-04-25T12:21:57.210Z,1.87
2023-04-25T12:24:28.571Z,1.70
2023-04-25T12:27:03.494Z,1.60
2023-04-25T12:29:42.002Z,1.58
2023-04-25T12:32:16.604Z,1.60
2023-04-25T12:34:43.760Z,1.67
2023-04-25T12:37:11.620Z,1.30
2023-04-25T12:39:38.704Z,1.77
2023-04-25T12:42:09.294Z,1.52
2023-04-25T12:44:36.781Z,1.60
2023-04-25T12:47:04.603Z,1.35
2023-04-25T12:49:31.705Z,1.80
2023-04-25T12:51:58.815Z,1.52
2023-04-25T12:54:26.713Z,1.60
2023-04-25T12:56:53.848Z,1.70
2023-04-25T12:59:21.677Z,1.90
2023-04-25T13:01:48.846Z,1.42
2023-04-25T13:04:16.464Z,1.60
2023-04-25T13:06:43.701Z,1.50
2023-04-25T13:09:10.729Z,1.60
2023-04-25T13:11:37.618Z,1.55
2023-04-25T13:14:04.613Z,1.58
2023-04-25T13:16:31.700Z,1.48
2023-04-25T13:18:59.402Z,1.40
2023-04-25T13:21:26.715Z,1.70
2023-04-25T13:23:53.949Z,1.33
2023-04-25T13:26:21.386Z,1.30
2023-04-25T13:28:48.331Z,1.27
2023-04-25T13:31:15.205Z,1.58
2023-04-25T13:33:42.106Z,1.65
2023-04-25T13:36:09.221Z,1.50
2023-04-25T13:38:36.143Z,1.27
2023-04-25T13:41:03.009Z,1.42
2023-04-25T13:43:29.936Z,1.75
2023-04-25T13:45:56.945Z,1.73
2023-04-25T13:48:25.216Z,1.60
2023-04-25T13:50:52.079Z,1.98
2023-04-25T13:53:19.050Z,2.40
2023-04-25T13:55:46.100Z,1.90
2023-04-25T13:58:13.003Z,1.90
2023-04-25T14:00:40.715Z,2.20
2023-04-25T14:03:09.323Z,2.40
2023-04-25T14:05:40.530Z,2.10
2023-04-25T14:08:08.775Z,2.40
2023-04-25T14:10:36.349Z,1.80
2023-04-25T14:13:04.557Z,2.30
2023-04-25T14:15:33.600Z,1.90
2023-04-25T14:18:01.884Z,2.03
2023-04-25T14:20:29.162Z,1.83
2023-04-25T14:22:57.241Z,2.28
2023-04-25T14:25:24.765Z,2.15
2023-04-25T14:27:51.849Z,1.92
2023-04-25T14:30:22.137Z,2.00
2023-04-25T14:32:50.701Z,2.25
2023-04-25T14:35:18.128Z,2.00
2023-04-25T14:37:45.253Z,1.98
2023-04-25T14:40:14.203Z,1.95
2023-04-25T14:42:41.442Z,1.80
2023-04-25T14:45:09.828Z,2.30
2023-04-25T14:47:38.262Z,2.08
2023-04-25T14:50:06.317Z,1.90
2023-04-25T14:52:33.308Z,1.77
2023-04-25T14:55:03.169Z,3.30
2023-04-25T14:57:30.040Z,2.22
2023-04-25T14:59:56.947Z,1.10
2023-04-25T15:02:25.330Z,3.30
2023-04-25T15:04:52.382Z,1.70
2023-04-25T15:07:19.306Z,3.10
2023-04-25T15:09:46.204Z,1.62
2023-04-25T15:12:13.427Z,1.85
2023-04-25T15:14:40.336Z,1.50
2023-04-25T15:17:07.724Z,1.35
2023-04-25T15:19:34.617Z,1.35
2023-04-25T15:22:04.676Z,1.70
2023-04-25T15:24:31.777Z,1.50
2023-04-25T15:26:59.496Z,1.87
2023-04-25T15:29:27.379Z,1.60
2023-04-25T15:31:54.508Z,1.35
2023-04-25T15:34:21.651Z,1.15
2023-04-25T15:36:48.741Z,1.60
2023-04-25T15:39:15.694Z,1.60
2023-04-25T15:41:42.580Z,1.60
2023-04-25T15:44:11.255Z,1.62
2023-04-25T15:46:38.654Z,1.62
2023-04-25T15:49:05.626Z,1.62
2023-04-25T15:51:33.877Z,1.50
2023-04-25T15:54:02.639Z,1.67
2023-04-25T15:56:29.729Z,1.62
2023-04-25T15:58:56.658Z,1.90
2023-04-25T16:01:24.770Z,2.05
2023-04-25T16:03:53.364Z,1.98
2023-04-25T16:06:20.598Z,2.00
2023-04-25T16:08:47.608Z,2.15
2023-04-25T16:11:14.975Z,2.28
2023-04-25T16:13:41.882Z,2.03
2023-04-25T16:16:08.915Z,2.28
2023-04-25T16:18:35.981Z,1.70
2023-04-25T16:21:03.655Z,1.75
2023-04-25T16:23:31.475Z,1.60
2023-04-25T16:25:58.355Z,1.65
2023-04-25T16:28:25.570Z,1.37
2023-04-25T16:30:52.426Z,1.58
2023-04-25T16:33:19.391Z,1.90
2023-04-25T16:35:46.254Z,1.20
2023-04-25T16:38:13.137Z,1.50
2023-04-25T16:40:40.336Z,1.20
2023-04-25T16:43:07.200Z,1.30
2023-04-25T16:45:34.093Z,1.30
2023-04-25T16:48:00.973Z,1.20
2023-04-25T16:50:27.939Z,1.37
2023-04-25T16:52:54.809Z,2.40
2023-04-25T16:55:21.719Z,1.25
2023-04-25T16:57:48.619Z,1.20
2023-04-25T17:00:16.254Z,1.08
2023-04-25T17:02:43.686Z,1.40
2023-04-25T17:05:10.899Z,1.15
2023-04-25T17:07:37.795Z,1.33
2023-04-25T17:10:05.350Z,1.23
2023-04-25T17:12:32.240Z,1.60
2023-04-25T17:15:00.550Z,1.37
2023-04-25T17:17:28.003Z,1.27
2023-04-25T17:19:55.184Z,1.40
2023-04-25T17:22:22.547Z,1.70
2023-04-25T17:24:49.839Z,1.50
2023-04-25T17:27:16.885Z,1.55
2023-04-25T17:29:43.802Z,1.40
2023-04-25T17:32:10.875Z,1.62
2023-04-25T17:34:40.213Z,1.42
2023-04-25T17:37:09.766Z,1.42
2023-04-25T17:39:37.020Z,1.40
2023-04-25T17:42:04.049Z,1.30
2023-04-25T17:44:31.157Z,1.50
2023-04-25T17:46:58.073Z,1.67
2023-04-25T17:49:24.934Z,1.80
2023-04-25T17:51:51.838Z,1.73
2023-04-25T17:54:19.017Z,1.67
2023-04-25T17:56:48.751Z,1.40
2023-04-25T17:59:15.592Z,1.58
2023-04-25T18:01:47.655Z,1.70
2023-04-25T18:04:15.064Z,1.90
2023-04-25T18:06:41.902Z,1.85
2023-04-25T18:09:16.205Z,1.87
2023-04-25T18:11:46.731Z,1.50
2023-04-25T18:14:14.737Z,1.73
2023-04-25T18:16:45.081Z,2.28
2023-04-25T18:19:12.113Z,2.25
2023-04-25T18:21:39.213Z,1.95
2023-04-25T18:24:08.704Z,2.00
2023-04-25T18:26:35.952Z,1.92
2023-04-25T18:29:04.065Z,1.90
2023-04-25T18:31:32.310Z,2.03
2023-04-25T18:34:02.671Z,2.28
2023-04-25T18:36:29.736Z,1.75
2023-04-25T18:38:59.523Z,1.83
2023-04-25T18:41:51.928Z,1.60
2023-04-25T18:44:16.526Z,1.98
2023-04-25T18:46:50.470Z,1.75
2023-04-25T18:49:17.318Z,1.70
2023-04-25T18:51:44.407Z,1.70
2023-04-25T18:54:12.150Z,1.55
2023-04-25T18:56:41.822Z,1.45
2023-04-25T18:59:08.651Z,1.40
2023-04-25T19:01:35.724Z,1.40
2023-04-25T19:04:05.164Z,1.50
2023-04-25T19:06:33.651Z,1.60
2023-04-25T19:09:00.520Z,1.80
2023-04-25T19:11:27.441Z,1.52
2023-04-25T19:13:57.380Z,1.50
2023-04-25T19:16:26.507Z,1.80
2023-04-25T19:18:56.459Z,1.52
2023-04-25T19:21:23.807Z,1.70
2023-04-25T19:23:52.973Z,1.50
2023-04-25T19:26:20.928Z,1.60
2023-04-25T19:28:47.992Z,1.50
2023-04-25T19:31:14.952Z,1.40
2023-04-25T19:33:42.401Z,1.40
2023-04-25T19:36:09.257Z,1.73
2023-04-25T19:38:36.279Z,1.70
2023-04-25T19:41:03.127Z,1.75
2023-04-25T19:43:30.971Z,1.40
2023-04-25T19:45:58.095Z,1.35
2023-04-25T19:48:25.073Z,1.50
2023-04-25T19:50:52.148Z,1.40
2023-04-25T19:53:19.001Z,1.40
2023-04-25T19:55:45.860Z,1.50
2023-04-25T19:58:14.518Z,1.58
2023-04-25T20:00:41.451Z,1.48
2023-04-25T20:03:10.778Z,1.67
2023-04-25T20:05:37.879Z,1.48
2023-04-25T20:08:04.812Z,1.90
2023-04-25T20:10:31.989Z,1.60
2023-04-25T20:12:58.854Z,1.50
2023-04-25T20:15:25.814Z,1.45
2023-04-25T20:17:52.825Z,1.80
2023-04-25T20:20:20.289Z,1.90
2023-04-25T20:22:47.163Z,1.60
2023-04-25T20:25:14.088Z,1.42
2023-04-25T20:27:41.060Z,1.40
2023-04-25T20:30:09.382Z,1.50
2023-04-25T20:32:37.248Z,1.67
2023-04-25T20:35:05.743Z,1.40
2023-04-25T20:37:32.929Z,1.40
2023-04-25T20:40:01.053Z,1.50
2023-04-25T20:42:28.221Z,1.30
2023-04-25T20:44:55.324Z,1.20
2023-04-25T20:47:22.546Z,1.40
2023-04-25T20:49:50.083Z,1.60
2023-04-25T20:52:17.378Z,1.50
2023-04-25T20:54:50.382Z,1.70
2023-04-25T20:57:17.732Z,1.67
2023-04-25T20:59:44.956Z,1.73
2023-04-25T21:02:15.882Z,1.48
2023-04-25T21:04:44.426Z,1.60
2023-04-25T21:07:14.979Z,1.75
2023-04-25T21:09:43.077Z,1.80
2023-04-25T21:12:09.948Z,1.60
2023-04-25T21:14:36.826Z,1.65
2023-04-25T21:17:04.569Z,1.70
2023-04-25T21:19:31.728Z,1.48
2023-04-25T21:21:58.896Z,1.50
2023-04-25T21:24:27.357Z,1.80
2023-04-25T21:26:54.362Z,1.50
2023-04-25T21:29:21.227Z,1.60
2023-04-25T21:31:48.355Z,1.40
2023-04-25T21:34:15.266Z,1.60
2023-04-25T21:36:42.307Z,1.70
2023-04-25T21:39:10.924Z,1.50
2023-04-25T21:41:38.138Z,1.73
2023-04-25T21:44:05.066Z,1.60
2023-04-25T21:46:32.013Z,1.50
2023-04-25T21:48:59.025Z,2.00
2023-04-25T21:51:25.920Z,2.05
2023-04-25T21:53:53.082Z,1.90
2023-04-25T21:56:19.914Z,1.92
2023-04-25T22:01:13.488Z,1.98
2023-04-25T22:03:40.707Z,2.15
2023-04-25T22:06:07.800Z,2.08
2023-04-25T22:08:34.679Z,1.90
2023-04-25T22:11:02.963Z,2.45
2023-04-25T22:13:30.059Z,2.40
2023-04-25T22:15:57.096Z,2.28
2023-04-25T22:18:24.008Z,2.30
2023-04-25T22:20:50.937Z,2.50
2023-04-25T22:23:17.860Z,2.47
2023-04-25T22:25:45.006Z,2.30
2023-04-25T22:28:13.181Z,2.30
2023-04-25T22:30:40.049Z,2.83
2023-04-25T22:33:07.158Z,2.45
2023-04-25T22:35:34.198Z,2.83
2023-04-25T22:38:01.747Z,3.05
2023-04-25T22:40:28.675Z,2.58
2023-04-25T22:42:55.585Z,3.40
2023-04-25T22:45:22.436Z,3.80
2023-04-25T22:47:49.370Z,4.40
2023-04-25T22:50:17.237Z,4.43
2023-04-25T22:52:44.229Z,3.95
2023-04-25T22:55:12.524Z,4.15
2023-04-25T22:57:39.787Z,4.50
2023-04-25T23:00:16.163Z,4.70
2023-04-25T23:02:46.226Z,4.13
2023-04-25T23:05:13.731Z,4.60
2023-04-25T23:07:40.749Z,4.43
2023-04-25T23:10:08.677Z,5.03
2023-04-25T23:12:35.712Z,5.22
2023-04-25T23:15:05.154Z,5.55
2023-04-25T23:17:32.271Z,4.65
2023-04-25T23:19:59.338Z,5.00
2023-04-25T23:22:26.275Z,5.45
2023-04-25T23:24:53.208Z,4.95
2023-04-25T23:27:20.168Z,5.30
2023-04-25T23:32:20.786Z,4.95
2023-04-25T23:34:47.690Z,5.45
2023-04-25T23:37:14.542Z,5.12
2023-04-25T23:42:08.349Z,4.82
2023-04-25T23:47:02.007Z,4.97
2023-04-25T23:49:28.875Z,5.10
2023-04-25T23:51:55.704Z,5.35
2023-04-25T23:56:49.248Z,5.32
